Time;durP1;ratioP1;P1;durP2;ratioP2;P2;SDS_P1;SDS_P2;PMS_P1;PMS_P2;Temp;Humidity;BMP_temperature;BMP_pressure;BME280_temperature;BME280_humidity;BME280_pressure;Samples;Min_cycle;Max_cycle;Signal;HPM_P1;HPM_P2
2021/05/30 00:01:57;;;;;;;19.90;9.50;;;;;;;10.79;100.00;102225.09;5031388;28;20042;-73
2021/05/30 00:04:22;;;;;;;19.27;10.30;;;;;;;10.82;100.00;102219.88;5030314;28;20026;-74
2021/05/30 00:06:48;;;;;;;21.33;11.00;;;;;;;10.87;100.00;102221.63;5031629;28;20663;-73
2021/05/30 00:09:14;;;;;;;19.17;10.48;;;;;;;10.99;100.00;102223.69;5026017;28;20036;-73
2021/05/30 00:11:40;;;;;;;19.77;10.75;;;;;;;10.86;100.00;102218.13;5023380;28;20063;-73
2021/05/30 00:14:06;;;;;;;24.05;10.60;;;;;;;10.99;100.00;102215.59;5026776;28;20505;-73
2021/05/30 00:16:33;;;;;;;24.50;10.85;;;;;;;10.77;100.00;102217.34;5025574;28;20056;-73
2021/05/30 00:18:59;;;;;;;23.63;11.27;;;;;;;10.85;100.00;102224.66;5030630;28;20025;-73
2021/05/30 00:21:25;;;;;;;25.30;11.27;;;;;;;10.94;100.00;102223.84;5027953;28;20032;-74
2021/05/30 00:23:51;;;;;;;27.02;10.90;;;;;;;10.76;100.00;102218.44;5041139;28;20054;-74
2021/05/30 00:26:16;;;;;;;22.58;11.57;;;;;;;10.76;100.00;102225.75;5031065;28;20021;-73
2021/05/30 00:28:42;;;;;;;27.55;11.63;;;;;;;10.62;100.00;102215.13;5024812;28;20054;-74
2021/05/30 00:31:07;;;;;;;22.65;11.68;;;;;;;10.67;100.00;102220.34;5036936;28;20079;-73
2021/05/30 00:33:34;;;;;;;32.95;12.50;;;;;;;10.66;100.00;102221.47;5026831;28;20083;-73
2021/05/30 00:35:59;;;;;;;26.40;13.02;;;;;;;10.66;100.00;102216.09;5031980;28;20049;-71
2021/05/30 00:38:25;;;;;;;31.90;13.73;;;;;;;10.62;100.00;102220.50;5021460;28;20056;-73
2021/05/30 00:40:52;;;;;;;28.58;15.02;;;;;;;10.69;100.00;102220.03;5016273;28;20494;-73
2021/05/30 00:43:18;;;;;;;30.25;15.15;;;;;;;10.62;100.00;102220.50;5027211;28;20047;-73
2021/05/30 00:45:44;;;;;;;32.35;16.77;;;;;;;10.52;100.00;102215.44;5030879;28;20033;-74
2021/05/30 00:48:10;;;;;;;39.17;18.20;;;;;;;10.62;100.00;102212.44;5025947;28;20033;-74
2021/05/30 00:50:35;;;;;;;32.72;17.75;;;;;;;10.47;100.00;102217.50;5027446;28;20080;-73
2021/05/30 00:53:01;;;;;;;34.80;17.98;;;;;;;10.70;100.00;102208.16;5029756;28;20025;-73
2021/05/30 00:55:27;;;;;;;38.08;18.35;;;;;;;10.61;100.00;102213.53;5023675;28;20581;-73
2021/05/30 00:57:53;;;;;;;38.17;17.77;;;;;;;10.72;100.00;102208.63;5037168;28;20079;-73
2021/05/30 01:00:19;;;;;;;34.50;16.25;;;;;;;10.46;100.00;102211.31;5032274;28;20037;-73
2021/05/30 01:02:44;;;;;;;27.05;15.10;;;;;;;10.47;100.00;102215.56;5030350;28;20022;-73
2021/05/30 01:05:11;;;;;;;28.75;14.18;;;;;;;10.37;100.00;102213.19;5025014;28;20051;-74
2021/05/30 01:07:41;;;;;;;30.70;13.90;;;;;;;10.38;100.00;102209.38;5028771;28;20552;-74
2021/05/30 01:10:42;;;;;;;28.90;13.15;;;;;;;10.37;100.00;102212.41;5017900;28;20037;-74
2021/05/30 01:13:11;;;;;;;27.85;12.75;;;;;;;10.29;100.00;102205.91;5016592;28;20096;-74
2021/05/30 01:15:36;;;;;;;26.63;12.52;;;;;;;10.28;100.00;102208.91;5028132;28;20390;-73
2021/05/30 01:18:02;;;;;;;29.55;12.52;;;;;;;10.35;100.00;102217.31;5030094;28;20087;-74
2021/05/30 01:20:28;;;;;;;32.25;12.63;;;;;;;10.35;100.00;102211.91;5027766;28;20378;-74
2021/05/30 01:22:54;;;;;;;30.88;12.55;;;;;;;10.35;100.00;102210.03;5028186;28;20052;-73
2021/05/30 01:25:23;;;;;;;25.35;12.05;;;;;;;10.36;100.00;102208.91;5027780;28;20037;-74
2021/05/30 01:27:51;;;;;;;27.48;13.15;;;;;;;10.24;100.00;102208.72;5024523;28;20109;-74
2021/05/30 01:30:18;;;;;;;29.33;12.50;;;;;;;10.15;100.00;102212.50;5023639;28;20541;-73
2021/05/30 01:32:45;;;;;;;22.88;11.57;;;;;;;10.12;100.00;102216.63;5028847;28;20030;-74
2021/05/30 01:35:11;;;;;;;21.90;11.80;;;;;;;10.17;100.00;102215.66;5027246;28;20520;-74
2021/05/30 01:37:37;;;;;;;26.98;12.50;;;;;;;10.08;100.00;102223.72;5030084;28;20033;-73
2021/05/30 01:40:04;;;;;;;26.98;11.93;;;;;;;10.15;100.00;102216.00;5026387;28;20044;-73
2021/05/30 01:42:29;;;;;;;23.08;11.65;;;;;;;10.06;100.00;102225.91;5018480;28;20120;-73
2021/05/30 01:44:54;;;;;;;25.80;11.13;;;;;;;9.99;100.00;102218.28;5032729;28;20716;-74
2021/05/30 01:47:20;;;;;;;27.02;12.23;;;;;;;9.91;100.00;102220.97;5030113;28;20038;-73
2021/05/30 01:49:45;;;;;;;26.15;11.57;;;;;;;9.90;100.00;102214.78;5025442;28;20060;-73
2021/05/30 01:52:11;;;;;;;28.88;11.57;;;;;;;9.76;100.00;102224.84;5035054;28;20083;-73
2021/05/30 01:54:41;;;;;;;25.48;12.50;;;;;;;9.75;100.00;102220.59;5028891;28;20171;-74
2021/05/30 01:57:28;;;;;;;24.35;12.38;;;;;;;9.78;100.00;102232.59;5029547;28;20034;-73
2021/05/30 01:59:55;;;;;;;28.55;12.45;;;;;;;9.83;100.00;102221.72;4962858;28;20034;-74
2021/05/30 02:02:23;;;;;;;23.42;12.02;;;;;;;9.87;100.00;102220.00;4969362;28;20050;-73
2021/05/30 02:04:49;;;;;;;18.13;11.18;;;;;;;9.82;100.00;102231.69;4968198;28;20538;-73
2021/05/30 02:07:15;;;;;;;21.98;11.73;;;;;;;9.93;100.00;102222.22;4967883;28;20082;-73
2021/05/30 02:09:41;;;;;;;30.00;12.75;;;;;;;9.87;100.00;102228.06;4964094;28;20046;-74
2021/05/30 02:12:08;;;;;;;27.05;12.10;;;;;;;9.81;100.00;102218.53;4975769;28;20054;-74
2021/05/30 02:14:34;;;;;;;27.02;11.63;;;;;;;9.88;100.00;102227.75;4971377;28;20094;-73
2021/05/30 02:17:01;;;;;;;26.15;11.25;;;;;;;9.65;100.00;102230.81;4958705;28;20050;-74
2021/05/30 02:19:26;;;;;;;20.40;11.40;;;;;;;9.64;100.00;102232.69;4975374;28;20047;-74
2021/05/30 02:21:53;;;;;;;23.98;11.85;;;;;;;9.76;100.00;102224.03;4972227;28;20487;-73
2021/05/30 02:24:20;;;;;;;23.08;10.75;;;;;;;9.61;100.00;102229.84;4972067;28;20042;-73
2021/05/30 02:26:46;;;;;;;22.08;11.57;;;;;;;9.53;100.00;102230.56;4966416;28;20125;-74
2021/05/30 02:29:27;;;;;;;24.52;12.15;;;;;;;9.49;100.00;102233.09;4976014;28;20849;-73
2021/05/30 02:31:53;;;;;;;21.77;11.30;;;;;;;9.43;100.00;102231.63;4966208;28;21229;-73
2021/05/30 02:34:18;;;;;;;21.80;11.63;;;;;;;9.43;100.00;102237.00;4976838;28;20050;-74
2021/05/30 02:36:43;;;;;;;25.50;12.05;;;;;;;9.50;100.00;102231.22;4994831;28;20037;-73
2021/05/30 02:39:09;;;;;;;24.20;11.90;;;;;;;9.47;100.00;102231.81;5041175;28;20493;-73
2021/05/30 02:41:34;;;;;;;26.42;12.40;;;;;;;9.35;100.00;102227.00;5034299;28;20486;-73
2021/05/30 02:44:00;;;;;;;22.45;12.43;;;;;;;9.56;100.00;102224.59;5033203;28;20034;-74
2021/05/30 02:46:25;;;;;;;27.65;11.82;;;;;;;9.38;100.00;102225.59;5025633;28;20033;-73
2021/05/30 02:48:51;;;;;;;23.20;11.30;;;;;;;9.46;100.00;102224.84;5016828;28;20037;-73
2021/05/30 02:51:16;;;;;;;24.85;11.63;;;;;;;9.57;100.00;102226.97;5021251;28;20030;-73
2021/05/30 02:53:42;;;;;;;25.75;12.18;;;;;;;9.46;100.00;102230.22;5026374;28;20397;-73
2021/05/30 02:56:07;;;;;;;21.15;11.50;;;;;;;9.30;100.00;102227.13;5035329;28;20045;-73
2021/05/30 02:58:33;;;;;;;27.00;11.98;;;;;;;9.31;100.00;102227.94;5032789;28;20040;-73
2021/05/30 03:00:58;;;;;;;24.65;11.98;;;;;;;9.42;100.00;102226.56;5028491;28;20034;-74
2021/05/30 03:03:24;;;;;;;29.23;11.93;;;;;;;9.39;100.00;102224.50;5043331;28;20633;-74
2021/05/30 03:05:50;;;;;;;27.40;12.05;;;;;;;9.51;100.00;102224.72;5026519;28;20112;-74
2021/05/30 03:08:16;;;;;;;25.55;12.15;;;;;;;9.39;100.00;102216.44;5032845;28;20037;-73
2021/05/30 03:10:42;;;;;;;30.05;12.18;;;;;;;9.43;100.00;102222.75;5031365;28;20087;-74
2021/05/30 03:13:08;;;;;;;27.50;12.50;;;;;;;9.52;100.00;102226.31;5030972;28;20501;-74
2021/05/30 03:15:34;;;;;;;26.45;13.43;;;;;;;9.41;100.00;102225.75;5025140;28;20080;-74
2021/05/30 03:17:59;;;;;;;27.00;11.93;;;;;;;9.40;100.00;102221.50;5035408;28;20436;-74
2021/05/30 03:20:25;;;;;;;24.15;12.40;;;;;;;9.31;100.00;102223.31;5017943;28;20037;-74
2021/05/30 03:22:51;;;;;;;25.92;12.10;;;;;;;9.33;100.00;102217.66;5026721;28;20061;-74
2021/05/30 03:25:17;;;;;;;24.15;12.23;;;;;;;9.42;100.00;102219.31;5019222;28;20104;-73
2021/05/30 03:27:42;;;;;;;27.58;13.10;;;;;;;9.15;100.00;102215.97;5027353;28;20129;-73
2021/05/30 03:30:09;;;;;;;26.60;12.10;;;;;;;9.32;100.00;102218.75;5024423;28;20456;-73
2021/05/30 03:32:35;;;;;;;31.20;12.82;;;;;;;9.26;100.00;102222.66;5019602;28;20021;-73
2021/05/30 03:35:01;;;;;;;28.95;11.43;;;;;;;9.27;100.00;102219.66;5027147;28;20041;-73
2021/05/30 03:37:27;;;;;;;23.75;12.93;;;;;;;9.16;100.00;102217.53;5031010;28;20080;-74
2021/05/30 03:39:56;;;;;;;23.27;11.30;;;;;;;9.20;100.00;102218.50;5029496;28;20064;-73
2021/05/30 03:42:25;;;;;;;21.48;12.05;;;;;;;9.07;100.00;102220.97;5032414;28;20101;-73
2021/05/30 03:44:51;;;;;;;23.98;12.30;;;;;;;9.07;100.00;102223.66;5027386;28;20034;-73
2021/05/30 03:47:17;;;;;;;22.17;11.40;;;;;;;9.29;100.00;102227.44;5032029;28;20036;-73
2021/05/30 03:49:42;;;;;;;24.92;12.57;;;;;;;9.17;100.00;102230.69;5033691;28;20036;-73
2021/05/30 03:52:11;;;;;;;27.48;12.43;;;;;;;9.13;100.00;102220.84;5030495;28;20045;-73
2021/05/30 03:54:36;;;;;;;23.73;11.77;;;;;;;9.14;100.00;102227.81;5031618;28;20045;-73
2021/05/30 03:57:02;;;;;;;22.70;11.50;;;;;;;9.15;100.00;102230.19;5026615;28;20037;-73
2021/05/30 03:59:28;;;;;;;26.23;12.07;;;;;;;9.44;100.00;102227.06;5030873;28;20116;-73
2021/05/30 04:01:53;;;;;;;23.52;11.77;;;;;;;9.31;100.00;102230.63;5030539;28;20128;-73
2021/05/30 04:04:19;;;;;;;24.27;12.32;;;;;;;9.49;100.00;102227.72;5029753;28;20112;-73
2021/05/30 04:06:44;;;;;;;25.35;11.93;;;;;;;9.42;100.00;102229.25;5034371;28;20135;-73
2021/05/30 04:09:10;;;;;;;28.73;12.50;;;;;;;9.41;100.00;102233.84;5036753;28;20164;-73
2021/05/30 04:11:35;;;;;;;29.10;12.55;;;;;;;9.47;100.00;102231.81;5019025;28;20049;-73
2021/05/30 04:14:01;;;;;;;31.90;13.43;;;;;;;9.58;100.00;102233.91;5040149;22;20085;-72
2021/05/30 04:16:26;;;;;;;26.83;13.13;;;;;;;9.70;100.00;102236.03;5023052;28;20087;-70
2021/05/30 04:18:52;;;;;;;27.58;13.30;;;;;;;9.70;100.00;102236.03;5031693;28;20543;-70
2021/05/30 04:21:18;;;;;;;34.97;14.52;;;;;;;9.70;100.00;102222.59;5027522;28;20033;-72
2021/05/30 04:23:43;;;;;;;26.55;13.25;;;;;;;9.63;100.00;102230.31;5023905;28;20065;-70
2021/05/30 04:26:09;;;;;;;28.90;13.35;;;;;;;9.82;100.00;102220.13;5021825;28;20034;-70
2021/05/30 04:28:34;;;;;;;23.08;12.35;;;;;;;10.11;100.00;102228.47;5018603;28;20486;-70
2021/05/30 04:31:00;;;;;;;31.63;13.65;;;;;;;10.17;100.00;102221.06;5016803;28;20382;-70
2021/05/30 04:33:26;;;;;;;27.42;12.80;;;;;;;10.20;100.00;102223.91;5019075;28;20391;-70
2021/05/30 04:35:52;;;;;;;27.10;13.85;;;;;;;10.25;100.00;102222.97;5016604;28;20034;-73
2021/05/30 04:38:20;;;;;;;28.13;13.85;;;;;;;10.42;100.00;102229.19;5024582;28;20600;-73
2021/05/30 04:40:47;;;;;;;31.65;13.20;;;;;;;10.69;100.00;102231.59;5020423;28;20045;-70
2021/05/30 04:43:12;;;;;;;30.65;13.98;;;;;;;10.85;100.00;102231.94;5018878;28;20584;-72
2021/05/30 04:45:39;;;;;;;32.38;13.85;;;;;;;10.93;100.00;102238.41;5015732;28;20588;-73
2021/05/30 04:48:05;;;;;;;30.73;14.07;;;;;;;10.87;100.00;102230.50;5023290;28;20045;-70
2021/05/30 04:50:31;;;;;;;40.63;14.07;;;;;;;11.21;100.00;102231.56;5033570;28;20108;-70
2021/05/30 04:52:56;;;;;;;34.58;13.95;;;;;;;11.21;100.00;102236.97;5027087;28;20029;-70
2021/05/30 04:55:22;;;;;;;31.73;13.48;;;;;;;11.32;100.00;102227.44;5033328;28;20025;-70
2021/05/30 04:57:47;;;;;;;24.33;12.43;;;;;;;11.33;100.00;102227.13;5020327;28;20040;-70
2021/05/30 05:00:15;;;;;;;26.92;12.63;;;;;;;11.35;100.00;102222.19;5020956;28;20401;-70
2021/05/30 05:02:41;;;;;;;29.92;14.00;;;;;;;11.54;100.00;102222.63;5015794;28;20036;-69
2021/05/30 05:05:07;;;;;;;32.72;13.43;;;;;;;11.63;100.00;102231.47;5012101;28;20034;-72
2021/05/30 05:07:33;;;;;;;27.50;13.70;;;;;;;11.87;100.00;102217.44;5017713;28;20045;-70
2021/05/30 05:09:58;;;;;;;26.63;12.75;;;;;;;12.25;100.00;102222.81;5012397;28;20037;-70
2021/05/30 05:12:24;;;;;;;30.63;11.57;;;;;;;12.75;100.00;102226.28;5012074;28;20037;-72
2021/05/30 05:14:50;;;;;;;27.52;11.40;;;;;;;13.22;100.00;102230.34;5012413;28;20036;-72
2021/05/30 05:17:15;;;;;;;27.17;11.40;;;;;;;13.66;98.75;102215.22;5035957;28;20029;-70
2021/05/30 05:19:41;;;;;;;28.50;12.02;;;;;;;14.20;97.04;102218.50;5010759;28;20053;-72
2021/05/30 05:22:07;;;;;;;29.30;12.32;;;;;;;14.37;94.04;102224.50;5018778;28;20030;-70
2021/05/30 05:24:32;;;;;;;32.45;12.38;;;;;;;14.57;92.52;102219.25;5019494;28;20025;-70
2021/05/30 05:26:57;;;;;;;26.67;12.18;;;;;;;15.09;90.55;102233.53;5013458;28;20040;-70
2021/05/30 05:29:23;;;;;;;24.40;12.63;;;;;;;15.03;88.74;102227.59;5015306;28;20025;-70
2021/05/30 05:31:48;;;;;;;28.52;13.95;;;;;;;15.05;88.95;102235.38;5016350;28;20113;-70
2021/05/30 05:34:14;;;;;;;31.90;14.73;;;;;;;15.19;87.83;102220.25;5019471;28;20077;-70
2021/05/30 05:36:39;;;;;;;28.75;14.73;;;;;;;15.28;86.90;102217.38;5013344;28;20041;-70
2021/05/30 05:39:05;;;;;;;33.17;15.57;;;;;;;15.38;87.20;102222.31;5011217;28;20437;-73
2021/05/30 05:41:31;;;;;;;39.45;16.70;;;;;;;15.23;86.97;102217.66;5011799;28;20226;-70
2021/05/30 05:43:57;;;;;;;40.60;16.58;;;;;;;15.16;89.19;102215.53;5019360;28;20034;-70
2021/05/30 05:46:23;;;;;;;31.30;15.82;;;;;;;15.44;87.90;102220.16;5018660;28;20104;-70
2021/05/30 05:48:48;;;;;;;32.85;15.52;;;;;;;15.66;87.50;102220.34;5021261;28;20116;-70
2021/05/30 05:51:14;;;;;;;32.13;15.60;;;;;;;15.60;86.31;102218.25;5016979;28;20045;-70
2021/05/30 05:53:39;;;;;;;35.08;16.73;;;;;;;15.48;88.03;102219.13;5025967;28;20125;-71
2021/05/30 05:56:05;;;;;;;35.25;17.08;;;;;;;15.58;87.60;102218.59;5020649;28;20044;-71
2021/05/30 05:58:30;;;;;;;30.38;16.77;;;;;;;15.57;87.11;102219.75;5026437;28;20048;-71
2021/05/30 06:00:56;;;;;;;30.35;16.20;;;;;;;15.87;86.17;102209.22;5020085;28;20112;-71
2021/05/30 06:03:21;;;;;;;36.95;17.40;;;;;;;15.68;86.83;102215.34;5016347;28;20498;-71
2021/05/30 06:05:47;;;;;;;37.40;18.20;;;;;;;15.92;86.53;102217.09;5017312;28;20029;-71
2021/05/30 06:08:12;;;;;;;45.80;18.52;;;;;;;16.20;84.99;102223.97;5023245;28;20029;-71
2021/05/30 06:10:38;;;;;;;31.58;17.50;;;;;;;16.10;85.60;102227.25;5019973;28;20044;-71
2021/05/30 06:13:11;;;;;;;34.03;16.40;;;;;;;16.22;86.56;102224.41;5029109;28;20141;-71
2021/05/30 06:15:41;;;;;;;33.33;15.45;;;;;;;16.25;85.58;102229.16;5019268;28;20379;-73
2021/05/30 06:18:15;;;;;;;27.30;13.57;;;;;;;16.25;84.37;102228.38;5016195;28;20397;-71
2021/05/30 06:20:42;;;;;;;25.38;13.10;;;;;;;15.98;84.79;102232.00;5014081;28;20064;-71
2021/05/30 06:23:08;;;;;;;31.55;12.73;;;;;;;15.98;86.14;102232.81;5018302;28;20140;-71
2021/05/30 06:25:34;;;;;;;27.98;12.68;;;;;;;16.36;83.34;102229.38;5021393;28;20042;-71
2021/05/30 06:28:00;;;;;;;28.17;13.98;;;;;;;16.50;81.99;102237.09;5026450;28;20033;-71
2021/05/30 06:30:33;;;;;;;24.40;12.70;;;;;;;16.32;81.99;102220.34;5013118;28;20030;-71
2021/05/30 06:32:59;;;;;;;26.08;12.95;;;;;;;16.44;82.07;102227.59;5020210;28;20126;-71
2021/05/30 06:35:27;;;;;;;23.38;13.05;;;;;;;16.82;80.20;102228.47;5019095;28;20114;-71
2021/05/30 06:37:52;;;;;;;30.80;13.95;;;;;;;16.66;79.98;102229.69;5015167;28;20041;-71
2021/05/30 06:40:18;;;;;;;21.35;12.27;;;;;;;16.60;79.94;102220.22;5010771;28;20104;-71
2021/05/30 06:42:44;;;;;;;28.98;13.23;;;;;;;16.53;80.11;102225.53;5033889;28;20041;-70
2021/05/30 06:45:10;;;;;;;24.67;12.80;;;;;;;16.57;80.25;102227.16;5024123;28;20033;-70
2021/05/30 06:47:35;;;;;;;24.50;12.88;;;;;;;16.70;80.96;102227.81;5026254;28;20040;-70
2021/05/30 06:50:01;;;;;;;23.90;12.30;;;;;;;16.62;81.65;102226.09;5029092;28;20111;-70
2021/05/30 06:52:27;;;;;;;26.75;12.93;;;;;;;17.06;80.22;102224.66;5031145;28;20041;-70
2021/05/30 06:54:52;;;;;;;22.45;12.23;;;;;;;17.00;79.76;102221.44;5031100;28;20026;-70
2021/05/30 06:57:18;;;;;;;24.05;11.75;;;;;;;17.06;78.42;102222.75;5026966;28;20064;-71
2021/05/30 06:59:47;;;;;;;24.17;11.85;;;;;;;17.12;78.24;102224.03;5039042;28;20059;-71
2021/05/30 07:02:13;;;;;;;23.08;11.40;;;;;;;17.17;78.04;102224.88;5031081;28;20029;-71
2021/05/30 07:04:38;;;;;;;22.17;12.25;;;;;;;17.06;77.69;102216.50;5032893;28;20175;-71
2021/05/30 07:07:04;;;;;;;23.45;11.18;;;;;;;17.28;78.05;102217.69;5021748;28;20044;-71
2021/05/30 07:09:29;;;;;;;25.17;11.82;;;;;;;17.33;77.02;102218.16;5031855;28;20520;-70
2021/05/30 07:11:55;;;;;;;23.48;11.00;;;;;;;17.48;77.90;102214.56;5013309;28;20032;-70
2021/05/30 07:14:20;;;;;;;22.77;12.43;;;;;;;17.86;76.08;102222.63;5024107;28;20033;-70
2021/05/30 07:16:46;;;;;;;21.88;11.70;;;;;;;17.85;76.42;102223.78;5025831;28;20037;-71
2021/05/30 07:19:11;;;;;;;21.25;10.65;;;;;;;17.87;75.21;102221.47;5025690;28;20095;-70
2021/05/30 07:21:37;;;;;;;26.77;11.48;;;;;;;18.05;74.65;102208.13;5028819;28;20032;-70
2021/05/30 07:24:03;;;;;;;23.27;10.75;;;;;;;18.16;74.08;102211.78;5029610;28;20044;-73
2021/05/30 07:26:29;;;;;;;18.10;9.55;;;;;;;18.14;74.76;102213.31;5023985;28;20033;-71
2021/05/30 07:28:54;;;;;;;18.92;9.73;;;;;;;18.38;73.40;102213.66;5028812;28;20091;-71
2021/05/30 07:31:20;;;;;;;16.70;9.82;;;;;;;18.33;72.72;102221.38;5033528;28;20046;-71
2021/05/30 07:33:46;;;;;;;20.05;9.90;;;;;;;18.39;73.76;102214.47;5026984;28;20025;-71
2021/05/30 07:36:12;;;;;;;19.80;8.95;;;;;;;18.67;71.30;102220.31;5029878;28;20053;-71
2021/05/30 07:38:37;;;;;;;18.40;9.43;;;;;;;18.60;73.17;102220.22;5032066;28;20478;-71
2021/05/30 07:41:03;;;;;;;15.52;9.07;;;;;;;18.50;70.35;102226.31;5037021;28;20113;-71
2021/05/30 07:43:29;;;;;;;13.80;8.68;;;;;;;18.84;71.01;102219.72;5031669;28;20031;-71
2021/05/30 07:45:54;;;;;;;17.55;9.02;;;;;;;18.90;70.29;102226.44;5022770;28;20037;-71
2021/05/30 07:48:20;;;;;;;16.77;8.60;;;;;;;19.02;68.47;102223.47;5026680;28;20392;-71
2021/05/30 07:50:47;;;;;;;18.55;8.80;;;;;;;19.03;69.74;102227.75;5030975;28;20029;-71
2021/05/30 07:53:13;;;;;;;16.50;9.05;;;;;;;19.15;68.22;102229.44;5047293;28;20061;-71
2021/05/30 07:55:39;;;;;;;14.68;8.45;;;;;;;19.13;68.20;102232.56;5031436;28;20026;-71
2021/05/30 07:58:05;;;;;;;13.07;8.10;;;;;;;19.17;68.54;102229.84;5016892;28;20092;-71
2021/05/30 08:00:31;;;;;;;15.05;8.20;;;;;;;19.31;67.48;102224.53;5021255;28;20049;-71
2021/05/30 08:02:56;;;;;;;15.63;7.63;;;;;;;19.54;67.11;102234.19;5028887;28;20034;-71
2021/05/30 08:05:22;;;;;;;17.27;8.63;;;;;;;19.65;66.32;102226.84;5026210;28;20095;-71
2021/05/30 08:07:49;;;;;;;13.48;7.80;;;;;;;19.98;65.88;102233.34;5029102;28;20032;-71
2021/05/30 08:10:16;;;;;;;13.93;8.07;;;;;;;20.10;65.80;102236.56;5024316;28;20021;-71
2021/05/30 08:12:42;;;;;;;15.50;7.68;;;;;;;20.18;64.39;102235.50;5037295;28;20033;-71
2021/05/30 08:15:09;;;;;;;14.98;8.40;;;;;;;20.52;63.00;102236.06;5025286;28;20103;-72
2021/05/30 08:17:36;;;;;;;15.05;8.02;;;;;;;20.40;60.99;102239.91;5029968;28;20021;-71
2021/05/30 08:20:04;;;;;;;14.82;7.53;;;;;;;20.48;61.54;102238.78;5026891;28;20044;-72
2021/05/30 08:22:29;;;;;;;13.10;6.97;;;;;;;20.44;61.81;102245.44;5030654;28;20037;-72
2021/05/30 08:24:55;;;;;;;12.15;7.38;;;;;;;20.75;59.76;102239.31;5031225;28;20029;-72
2021/05/30 08:27:20;;;;;;;13.30;7.65;;;;;;;20.65;60.14;102231.84;5025874;28;20084;-72
2021/05/30 08:29:46;;;;;;;12.77;7.28;;;;;;;20.88;60.60;102232.34;5021653;28;20526;-72
2021/05/30 08:32:12;;;;;;;12.55;7.13;;;;;;;20.89;61.20;102233.09;5026847;28;20033;-73
2021/05/30 08:34:37;;;;;;;16.75;7.55;;;;;;;20.92;61.32;102244.09;5027647;28;20130;-73
2021/05/30 08:37:04;;;;;;;17.38;7.85;;;;;;;21.10;59.75;102225.75;5029318;28;20633;-72
2021/05/30 08:39:29;;;;;;;16.83;8.23;;;;;;;20.89;61.64;102225.66;5034044;28;20029;-72
2021/05/30 08:41:56;;;;;;;15.48;7.80;;;;;;;20.93;60.16;102236.63;5021082;28;20022;-72
2021/05/30 08:44:22;;;;;;;17.80;8.95;;;;;;;20.94;59.56;102233.53;5010307;28;20103;-72
2021/05/30 08:46:47;;;;;;;19.98;8.85;;;;;;;20.92;60.02;102230.38;5012107;28;20127;-72
2021/05/30 08:49:12;;;;;;;19.13;9.32;;;;;;;21.05;61.16;102231.63;5014503;28;20042;-72
2021/05/30 08:51:40;;;;;;;19.77;8.90;;;;;;;21.17;59.18;102236.75;5031624;28;20025;-72
2021/05/30 08:54:14;;;;;;;22.33;10.20;;;;;;;21.36;59.92;102225.44;5033629;28;20042;-72
2021/05/30 08:56:42;;;;;;;16.67;7.93;;;;;;;21.38;60.11;102228.56;5014369;28;20041;-72
2021/05/30 08:59:13;;;;;;;14.95;7.75;;;;;;;21.65;57.76;102234.47;5015986;28;20018;-72
2021/05/30 09:01:46;;;;;;;15.68;7.88;;;;;;;21.59;58.17;102225.06;5014804;28;20490;-72
2021/05/30 09:04:12;;;;;;;18.88;7.57;;;;;;;21.70;57.10;102225.84;5011727;28;20241;-72
2021/05/30 09:06:40;;;;;;;14.68;6.25;;;;;;;21.69;58.15;102229.78;5023135;28;20037;-72
2021/05/30 09:09:09;;;;;;;15.07;6.25;;;;;;;21.74;56.40;102223.88;5018849;28;20661;-72
2021/05/30 09:11:51;;;;;;;10.68;6.35;;;;;;;21.88;56.36;102229.41;5020240;28;20037;-72
2021/05/30 09:14:24;;;;;;;10.52;5.57;;;;;;;21.90;57.32;102232.53;5019986;28;20050;-72
2021/05/30 09:17:22;;;;;;;14.35;5.72;;;;;;;21.91;57.57;102227.84;5011877;28;20732;-72
2021/05/30 09:19:50;;;;;;;11.32;4.97;;;;;;;22.13;56.75;102226.63;5010162;28;20136;-72
2021/05/30 09:22:25;;;;;;;10.88;5.60;;;;;;;22.14;55.41;102222.72;5014410;28;20455;-72
2021/05/30 09:24:50;;;;;;;8.55;4.55;;;;;;;22.10;55.06;102224.69;5018337;28;20584;-72
2021/05/30 09:27:21;;;;;;;7.88;4.65;;;;;;;22.21;54.79;102228.19;5018589;28;20029;-72
2021/05/30 09:30:16;;;;;;;10.75;4.97;;;;;;;22.27;54.81;102226.59;5030484;28;20036;-72
2021/05/30 09:32:54;;;;;;;10.30;4.97;;;;;;;22.62;54.08;102223.78;5027355;28;20032;-72
2021/05/30 09:35:37;;;;;;;7.97;4.82;;;;;;;22.55;52.68;102229.25;5024183;28;20048;-72
2021/05/30 09:38:14;;;;;;;11.02;4.88;;;;;;;22.74;54.52;102223.34;5017389;28;20038;-72
2021/05/30 09:40:45;;;;;;;7.63;4.70;;;;;;;22.85;51.74;102218.56;5025714;28;20029;-72
2021/05/30 09:43:10;;;;;;;;;;;;;;;22.70;52.49;102225.31;5025439;28;20061;-72
2021/05/30 09:45:41;;;;;;;11.35;4.38;;;;;;;22.92;53.62;102226.78;5022438;28;19963;-72
2021/05/30 09:48:19;;;;;;;8.38;4.90;;;;;;;22.88;51.84;102226.00;5024640;28;20046;-72
2021/05/30 09:51:02;;;;;;;9.38;5.30;;;;;;;23.03;51.94;102227.53;5023562;28;20879;-72
2021/05/30 09:53:30;;;;;;;9.90;5.03;;;;;;;23.04;53.22;102228.28;5029139;28;20030;-72
2021/05/30 09:55:55;;;;;;;9.63;5.18;;;;;;;23.15;51.34;102218.78;5026161;28;20026;-72
2021/05/30 09:58:23;;;;;;;8.95;4.75;;;;;;;23.13;51.79;102220.41;5036504;28;20049;-71
2021/05/30 10:00:51;;;;;;;13.20;5.00;;;;;;;23.55;52.75;102216.59;5021438;28;20026;-72
2021/05/30 10:03:18;;;;;;;9.95;5.55;;;;;;;22.57;51.04;102215.16;5032679;28;20025;-71
2021/05/30 10:05:44;;;;;;;9.77;5.07;;;;;;;23.17;52.89;102213.66;5029670;28;20025;-71
2021/05/30 10:08:10;;;;;;;8.30;4.90;;;;;;;23.60;51.68;102216.13;5028297;28;20041;-71
2021/05/30 10:10:36;;;;;;;6.90;4.57;;;;;;;23.90;50.47;102213.53;5023914;28;20048;-71
2021/05/30 10:13:03;;;;;;;9.00;4.78;;;;;;;23.95;50.89;102215.84;5027823;28;20080;-71
2021/05/30 10:15:29;;;;;;;11.13;4.88;;;;;;;24.02;51.06;102207.56;5029839;28;20030;-71
2021/05/30 10:18:00;;;;;;;6.63;4.38;;;;;;;24.16;50.73;102216.44;5029882;28;20048;-71
2021/05/30 10:20:27;;;;;;;10.68;4.80;;;;;;;24.13;50.70;102211.75;5031100;28;20108;-72
2021/05/30 10:22:55;;;;;;;9.82;4.72;;;;;;;24.25;50.67;102215.16;5039641;28;20024;-71
2021/05/30 10:25:34;;;;;;;9.18;5.35;;;;;;;24.18;49.02;102214.06;5029129;28;20041;-71
2021/05/30 10:28:12;;;;;;;9.30;4.80;;;;;;;24.40;50.05;102211.06;5028622;28;20052;-72
2021/05/30 10:30:44;;;;;;;9.93;4.70;;;;;;;24.66;48.98;102205.63;5029361;28;20520;-73
2021/05/30 10:33:23;;;;;;;9.45;5.22;;;;;;;24.70;47.13;102209.09;5032562;28;20037;-72
2021/05/30 10:35:52;;;;;;;9.15;4.93;;;;;;;24.54;47.63;102200.66;5032846;28;20046;-73
2021/05/30 10:38:46;;;;;;;10.02;4.80;;;;;;;24.62;49.73;102207.63;5028705;28;20037;-73
2021/05/30 10:41:14;;;;;;;9.63;4.55;;;;;;;24.72;48.31;102208.72;5032931;28;20052;-72
2021/05/30 10:43:40;;;;;;;9.85;4.35;;;;;;;24.83;48.69;102212.94;5028956;28;20025;-72
2021/05/30 10:46:07;;;;;;;11.77;5.32;;;;;;;24.92;47.88;102202.16;5039923;28;20065;-73
2021/05/30 10:48:33;;;;;;;12.20;5.10;;;;;;;25.04;48.81;102201.59;5032472;28;20112;-73
2021/05/30 10:53:34;;;;;;;8.02;5.10;;;;;;;25.23;47.55;102196.59;5036768;28;20034;-73
2021/05/30 10:56:26;;;;;;;7.63;4.80;;;;;;;25.36;46.98;102194.81;5030059;28;20022;-72
2021/05/30 10:59:07;;;;;;;6.72;4.50;;;;;;;25.32;46.86;102185.81;5037146;28;20441;-72
2021/05/30 11:01:35;;;;;;;7.25;4.28;;;;;;;25.73;47.26;102186.31;5028065;28;20482;-72
2021/05/30 11:04:22;;;;;;;10.70;4.72;;;;;;;25.43;47.40;102184.47;5031474;28;20581;-72
2021/05/30 11:06:49;;;;;;;8.88;4.38;;;;;;;25.81;47.06;102185.00;5030876;28;20048;-73
2021/05/30 11:09:15;;;;;;;11.10;5.10;;;;;;;25.77;45.44;102178.75;5031217;28;20043;-72
2021/05/30 11:11:41;;;;;;;7.97;4.68;;;;;;;25.74;46.12;102185.13;5030274;28;20068;-73
2021/05/30 11:14:11;;;;;;;11.30;5.18;;;;;;;25.80;46.10;102183.44;5030858;28;20142;-73
2021/05/30 11:16:44;;;;;;;6.00;4.17;;;;;;;25.62;44.69;102191.25;5032318;28;20061;-73